createdAt,value
2019-05-26T00:01:26.710Z,3.63
2019-05-26T00:03:56.158Z,3.33
2019-05-26T00:06:25.569Z,3.37
2019-05-26T00:08:55.026Z,3.37
2019-05-26T00:11:24.549Z,3.53
2019-05-26T00:13:53.940Z,4.13
2019-05-26T00:16:23.287Z,3.50
2019-05-26T00:18:52.662Z,3.20
2019-05-26T00:21:21.998Z,3.90
2019-05-26T00:23:51.481Z,3.53
2019-05-26T00:26:20.873Z,3.60
2019-05-26T00:28:50.261Z,4.00
2019-05-26T00:31:19.736Z,3.23
2019-05-26T00:33:49.175Z,3.47
2019-05-26T00:36:18.632Z,3.37
2019-05-26T00:38:48.042Z,3.63
2019-05-26T00:41:17.544Z,3.83
2019-05-26T00:43:47.149Z,4.03
2019-05-26T00:46:16.541Z,3.40
2019-05-26T00:48:46.061Z,4.37
2019-05-26T00:51:15.553Z,4.33
2019-05-26T00:53:44.898Z,3.87
2019-05-26T00:56:14.283Z,4.53
2019-05-26T00:58:43.668Z,3.97
2019-05-26T01:01:13.071Z,3.70
2019-05-26T01:03:42.550Z,4.33
2019-05-26T01:06:11.977Z,4.13
2019-05-26T01:08:41.827Z,4.17
2019-05-26T01:11:11.287Z,4.30
2019-05-26T01:13:40.621Z,4.10
2019-05-26T01:16:10.005Z,4.10
2019-05-26T01:18:39.491Z,4.37
2019-05-26T01:21:08.852Z,3.80
2019-05-26T01:23:38.163Z,4.57
2019-05-26T01:26:07.519Z,4.67
2019-05-26T01:28:36.863Z,4.53
2019-05-26T01:31:06.257Z,4.40
2019-05-26T01:33:35.681Z,4.30
2019-05-26T01:36:05.152Z,5.03
2019-05-26T01:38:34.894Z,4.03
2019-05-26T01:41:04.257Z,4.40
2019-05-26T01:43:33.641Z,4.00
2019-05-26T01:46:03.126Z,3.73
2019-05-26T01:48:32.490Z,4.47
2019-05-26T01:51:01.841Z,4.23
2019-05-26T01:53:31.187Z,4.47
2019-05-26T01:56:00.541Z,4.90
2019-05-26T01:58:29.906Z,5.00
2019-05-26T02:00:59.244Z,3.90
2019-05-26T02:03:28.601Z,4.10
2019-05-26T02:05:58.027Z,4.20
2019-05-26T02:08:38.688Z,4.10
2019-05-26T02:10:58.580Z,4.03
2019-05-26T02:13:27.947Z,4.40
2019-05-26T02:15:57.345Z,4.57
2019-05-26T02:18:26.729Z,4.03
2019-05-26T02:20:56.215Z,3.87
2019-05-26T02:23:25.616Z,4.70
2019-05-26T02:25:54.971Z,3.53
2019-05-26T02:28:24.347Z,4.27
2019-05-26T02:30:53.837Z,4.73
2019-05-26T02:33:23.286Z,5.10
2019-05-26T02:35:52.663Z,4.90
2019-05-26T02:38:25.951Z,4.67
2019-05-26T02:40:53.156Z,4.17
2019-05-26T02:43:24.219Z,4.43
2019-05-26T02:45:53.645Z,4.33
2019-05-26T02:48:23.017Z,4.30
2019-05-26T02:50:52.449Z,4.53
2019-05-26T02:53:24.714Z,4.40
2019-05-26T02:55:53.056Z,4.70
2019-05-26T02:58:22.405Z,4.03
2019-05-26T03:00:51.837Z,4.27
2019-05-26T03:03:21.204Z,4.27
2019-05-26T03:05:51.835Z,4.27
2019-05-26T03:08:23.255Z,4.10
2019-05-26T03:10:54.415Z,4.10
2019-05-26T03:13:23.770Z,4.30
2019-05-26T03:15:56.013Z,4.07
2019-05-26T03:18:26.833Z,3.97
2019-05-26T03:20:58.023Z,5.00
2019-05-26T03:23:31.460Z,4.23
2019-05-26T03:26:01.533Z,4.30
2019-05-26T03:28:30.889Z,4.00
2019-05-26T03:31:00.354Z,4.13
2019-05-26T03:33:29.851Z,3.40
2019-05-26T03:35:59.310Z,4.43
2019-05-26T03:38:28.847Z,4.03
2019-05-26T03:40:58.345Z,4.10
2019-05-26T03:43:27.769Z,4.33
2019-05-26T03:46:17.362Z,4.20
2019-05-26T03:48:47.008Z,4.10
2019-05-26T03:51:16.800Z,3.67
2019-05-26T03:53:46.276Z,4.17
2019-05-26T03:56:15.722Z,4.83
2019-05-26T03:58:45.175Z,4.17
2019-05-26T04:01:14.752Z,4.03
2019-05-26T04:03:44.235Z,4.00
2019-05-26T04:06:13.669Z,4.77
2019-05-26T04:08:43.180Z,4.00
2019-05-26T04:11:12.706Z,3.80
2019-05-26T04:13:42.144Z,3.77
2019-05-26T04:16:11.621Z,3.47
2019-05-26T04:18:41.082Z,4.23
2019-05-26T04:21:10.506Z,4.03
2019-05-26T04:23:39.989Z,3.97
2019-05-26T04:26:09.436Z,5.30
2019-05-26T04:28:38.883Z,4.67
2019-05-26T04:31:08.362Z,4.27
2019-05-26T04:33:37.832Z,4.47
2019-05-26T04:36:07.386Z,4.47
2019-05-26T04:38:36.962Z,5.97
2019-05-26T04:41:06.435Z,5.93
2019-05-26T04:43:36.049Z,5.83
2019-05-26T04:46:05.677Z,6.03
2019-05-26T04:48:35.100Z,6.70
2019-05-26T04:51:04.531Z,7.63
2019-05-26T04:53:34.092Z,7.10
2019-05-26T04:56:03.597Z,7.90
2019-05-26T04:58:33.077Z,7.57
2019-05-26T05:01:02.585Z,8.13
2019-05-26T05:03:32.042Z,9.53
2019-05-26T05:06:01.490Z,7.93
2019-05-26T05:08:31.013Z,8.47
2019-05-26T05:11:00.527Z,8.03
2019-05-26T05:13:29.978Z,8.73
2019-05-26T05:15:59.476Z,10.10
2019-05-26T05:18:29.112Z,11.10
2019-05-26T05:20:58.534Z,11.47
2019-05-26T05:23:27.962Z,11.63
2019-05-26T05:25:57.481Z,12.43
2019-05-26T05:28:26.906Z,13.27
2019-05-26T05:30:56.448Z,13.03
2019-05-26T05:33:25.921Z,13.80
2019-05-26T05:35:55.423Z,13.73
2019-05-26T05:38:24.881Z,13.93
2019-05-26T05:40:59.512Z,17.47
2019-05-26T05:43:25.515Z,12.83
2019-05-26T05:45:55.016Z,12.97
2019-05-26T05:48:24.497Z,13.43
2019-05-26T05:50:53.920Z,13.50
2019-05-26T05:53:23.426Z,14.83
2019-05-26T05:55:52.901Z,13.90
2019-05-26T05:58:22.687Z,11.93
2019-05-26T06:00:52.187Z,12.30
2019-05-26T06:03:22.020Z,12.17
2019-05-26T06:05:51.518Z,13.37
2019-05-26T06:08:21.063Z,13.20
2019-05-26T06:10:50.635Z,12.70
2019-05-26T06:13:20.146Z,13.73
2019-05-26T06:15:49.623Z,13.77
2019-05-26T06:18:19.042Z,14.33
2019-05-26T06:20:48.439Z,16.70
2019-05-26T06:23:17.840Z,14.63
2019-05-26T06:25:47.328Z,13.47
2019-05-26T06:28:16.688Z,15.97
2019-05-26T06:30:46.120Z,15.33
2019-05-26T06:33:15.538Z,16.63
2019-05-26T06:35:44.958Z,17.60
2019-05-26T06:38:14.444Z,15.67
2019-05-26T06:40:43.933Z,15.80
2019-05-26T06:43:13.381Z,16.80
2019-05-26T06:45:42.859Z,16.63
2019-05-26T06:48:13.668Z,17.30
2019-05-26T06:50:43.046Z,16.07
2019-05-26T06:53:12.730Z,16.80
2019-05-26T06:55:42.237Z,16.20
2019-05-26T06:58:11.661Z,15.07
2019-05-26T07:00:41.164Z,15.97
2019-05-26T07:03:10.731Z,15.97
2019-05-26T07:05:40.274Z,16.77
2019-05-26T07:08:09.701Z,17.67
2019-05-26T07:10:39.183Z,16.37
2019-05-26T07:13:08.641Z,16.37
2019-05-26T07:15:38.004Z,17.57
2019-05-26T07:18:07.362Z,18.40
2019-05-26T07:20:36.701Z,16.23
2019-05-26T07:23:07.573Z,16.50
2019-05-26T07:25:37.209Z,15.90
2019-05-26T07:28:06.633Z,16.97
2019-05-26T07:30:35.991Z,14.63
2019-05-26T07:33:05.597Z,16.40
2019-05-26T07:35:35.063Z,17.40
2019-05-26T07:38:04.576Z,18.57
2019-05-26T07:40:36.168Z,15.57
2019-05-26T07:43:05.673Z,15.97
2019-05-26T07:45:35.597Z,16.53
2019-05-26T07:48:05.130Z,17.40
2019-05-26T07:50:34.763Z,16.17
2019-05-26T07:53:04.432Z,16.73
2019-05-26T07:55:34.957Z,17.10
2019-05-26T07:58:06.311Z,17.93
2019-05-26T08:08:41.950Z,15.70
2019-05-26T08:11:12.441Z,14.37
2019-05-26T08:13:45.324Z,15.40
2019-05-26T08:16:21.827Z,13.60
2019-05-26T08:18:53.625Z,15.30
2019-05-26T08:21:23.275Z,13.93
2019-05-26T08:23:53.136Z,12.90
2019-05-26T08:26:22.794Z,13.20
2019-05-26T08:28:54.503Z,13.07
2019-05-26T08:31:24.184Z,12.20
2019-05-26T08:33:53.739Z,13.80
2019-05-26T08:36:23.237Z,14.63
2019-05-26T08:38:52.863Z,12.37
2019-05-26T08:41:23.898Z,12.93
2019-05-26T08:43:53.781Z,13.73
2019-05-26T08:46:23.879Z,14.40
2019-05-26T08:48:53.719Z,14.10
2019-05-26T08:51:37.766Z,12.50
2019-05-26T08:54:05.868Z,13.87
2019-05-26T08:56:35.835Z,13.77
2019-05-26T08:59:06.356Z,14.83
2019-05-26T09:01:36.988Z,13.00
2019-05-26T09:08:11.867Z,13.50
2019-05-26T09:10:38.802Z,13.70
2019-05-26T09:13:09.103Z,13.83
2019-05-26T09:15:38.911Z,13.13
2019-05-26T09:18:09.152Z,12.07
2019-05-26T09:20:45.026Z,13.13
2019-05-26T09:23:17.714Z,10.43
2019-05-26T09:25:47.397Z,11.93
2019-05-26T09:28:16.985Z,12.53
2019-05-26T09:30:46.654Z,11.03
2019-05-26T09:33:16.316Z,10.40
2019-05-26T09:35:45.956Z,10.30
2019-05-26T09:38:15.740Z,11.03
2019-05-26T09:40:45.537Z,10.67
2019-05-26T09:43:16.684Z,11.17
2019-05-26T09:45:46.452Z,9.70
2019-05-26T09:48:16.018Z,11.67
2019-05-26T09:50:45.411Z,10.53
2019-05-26T09:53:14.915Z,9.97
2019-05-26T09:55:44.372Z,10.37
2019-05-26T09:58:13.852Z,9.43
2019-05-26T10:00:44.396Z,8.23
2019-05-26T10:03:14.390Z,8.93
2019-05-26T10:05:43.969Z,10.13
2019-05-26T10:08:13.466Z,10.10
2019-05-26T10:10:42.973Z,10.23
2019-05-26T10:13:12.538Z,10.03
2019-05-26T10:15:42.043Z,9.20
2019-05-26T10:18:11.548Z,10.07
2019-05-26T10:20:40.991Z,9.20
2019-05-26T10:23:10.418Z,8.57
2019-05-26T10:25:39.871Z,9.53
2019-05-26T10:28:09.352Z,8.63
2019-05-26T10:30:38.817Z,8.20
2019-05-26T10:33:11.690Z,8.10
2019-05-26T10:35:41.200Z,8.47
2019-05-26T10:38:10.622Z,7.93
2019-05-26T10:40:40.112Z,7.97
2019-05-26T10:43:09.562Z,7.60
2019-05-26T10:45:39.056Z,7.27
2019-05-26T10:48:18.835Z,7.67
2019-05-26T10:50:55.986Z,7.80
2019-05-26T11:00:32.834Z,7.13
2019-05-26T11:03:03.580Z,7.57
2019-05-26T11:05:35.124Z,6.70
2019-05-26T11:08:04.602Z,6.97
2019-05-26T11:10:34.048Z,7.20
2019-05-26T11:13:03.588Z,6.30
2019-05-26T11:15:39.967Z,6.47
2019-05-26T11:18:09.508Z,6.63
2019-05-26T11:20:39.462Z,6.63
2019-05-26T11:23:09.282Z,6.70
2019-05-26T11:25:39.179Z,5.50
2019-05-26T11:28:11.200Z,8.37
2019-05-26T11:30:41.018Z,6.83
2019-05-26T11:33:10.848Z,7.43
2019-05-26T11:35:40.640Z,7.50
2019-05-26T11:38:10.328Z,7.57
2019-05-26T11:40:40.968Z,7.70
2019-05-26T11:43:16.636Z,6.57
2019-05-26T11:45:42.844Z,6.30
2019-05-26T11:48:18.555Z,6.53
2019-05-26T11:50:47.122Z,6.77
2019-05-26T11:53:19.841Z,5.90
2019-05-26T11:55:52.356Z,7.00
2019-05-26T11:58:22.435Z,6.97
2019-05-26T12:00:52.988Z,7.10
2019-05-26T12:03:22.885Z,6.30
2019-05-26T12:05:52.791Z,7.30
2019-05-26T12:08:24.290Z,7.53
2019-05-26T12:10:54.333Z,8.53
2019-05-26T12:13:27.426Z,7.53
2019-05-26T12:15:57.236Z,8.50
2019-05-26T12:18:27.814Z,8.50
2019-05-26T12:20:58.158Z,8.17
2019-05-26T12:23:28.680Z,7.43
2019-05-26T12:25:59.433Z,8.33
2019-05-26T12:28:37.053Z,8.03
2019-05-26T12:31:10.076Z,8.90
2019-05-26T12:33:40.235Z,9.77
2019-05-26T12:36:13.008Z,8.00
2019-05-26T12:38:51.637Z,6.73
2019-05-26T12:41:22.380Z,7.40
2019-05-26T12:43:51.939Z,7.60
2019-05-26T12:46:21.796Z,6.80
2019-05-26T12:48:52.159Z,7.33
2019-05-26T12:51:22.989Z,7.70
2019-05-26T12:53:53.842Z,8.57
2019-05-26T12:56:23.532Z,7.53
2019-05-26T12:59:02.343Z,7.43
2019-05-26T13:01:34.877Z,8.53
2019-05-26T13:04:04.487Z,8.00
2019-05-26T13:06:34.018Z,6.70
2019-05-26T13:09:04.089Z,6.70
2019-05-26T13:11:33.737Z,8.57
2019-05-26T13:14:03.237Z,8.47
2019-05-26T13:16:35.850Z,7.57
2019-05-26T13:19:03.703Z,8.80
2019-05-26T13:21:33.473Z,6.20
2019-05-26T13:24:02.868Z,6.03
2019-05-26T13:26:32.343Z,5.30
2019-05-26T13:29:01.830Z,5.30
2019-05-26T13:31:31.315Z,6.77
2019-05-26T13:34:00.757Z,6.33
2019-05-26T13:36:30.197Z,6.93
2019-05-26T13:39:03.307Z,7.90
2019-05-26T13:42:15.938Z,7.20
2019-05-26T13:44:47.198Z,6.63
2019-05-26T13:47:27.038Z,6.20
2019-05-26T13:50:01.232Z,6.27
2019-05-26T13:52:42.087Z,5.80
2019-05-26T13:55:23.015Z,4.30
2019-05-26T13:58:24.150Z,5.97
2019-05-26T14:00:30.431Z,5.63
2019-05-26T14:03:03.150Z,5.83
2019-05-26T14:05:33.834Z,5.70
2019-05-26T14:08:07.690Z,6.07
2019-05-26T14:10:37.730Z,4.50
2019-05-26T14:13:07.566Z,5.63
2019-05-26T14:15:39.013Z,5.70
2019-05-26T14:18:08.348Z,6.53
2019-05-26T14:20:39.036Z,4.27
2019-05-26T14:23:09.453Z,6.60
2019-05-26T14:25:39.029Z,5.57
2019-05-26T14:28:09.030Z,5.97
2019-05-26T14:30:38.424Z,5.57
2019-05-26T14:33:07.832Z,5.70
2019-05-26T14:35:37.232Z,5.80
2019-05-26T14:38:06.581Z,5.83
2019-05-26T14:40:36.028Z,4.90
2019-05-26T14:43:05.647Z,6.10
2019-05-26T14:45:35.251Z,5.57
2019-05-26T14:48:05.516Z,6.70
2019-05-26T14:50:35.109Z,6.83
2019-05-26T14:53:04.638Z,6.70
2019-05-26T14:55:34.212Z,5.30
2019-05-26T14:58:14.817Z,6.47
2019-05-26T15:00:34.758Z,7.37
2019-05-26T15:03:04.249Z,5.63
2019-05-26T15:05:33.588Z,5.93
2019-05-26T15:08:03.057Z,6.83
2019-05-26T15:10:32.621Z,6.37
2019-05-26T15:13:02.199Z,8.53
2019-05-26T15:15:34.887Z,6.87
2019-05-26T15:18:03.018Z,6.50
2019-05-26T15:20:32.375Z,7.20
2019-05-26T15:23:01.847Z,9.53
2019-05-26T15:25:31.247Z,6.53
2019-05-26T15:28:00.761Z,6.70
2019-05-26T15:30:30.247Z,7.63
2019-05-26T15:32:59.855Z,7.13
2019-05-26T15:35:29.399Z,8.20
2019-05-26T15:37:59.003Z,8.23
2019-05-26T15:40:28.629Z,8.13
2019-05-26T15:42:58.273Z,8.10
2019-05-26T15:45:27.996Z,7.43
2019-05-26T15:47:57.583Z,7.33
2019-05-26T15:50:27.118Z,8.03
2019-05-26T15:52:56.851Z,7.37
2019-05-26T15:55:26.412Z,8.23
2019-05-26T15:57:55.891Z,7.30
2019-05-26T16:00:27.203Z,6.90
2019-05-26T16:02:56.759Z,7.23
2019-05-26T16:05:26.398Z,7.30
2019-05-26T16:07:55.936Z,6.57
2019-05-26T16:10:25.452Z,7.60
2019-05-26T16:12:54.955Z,8.00
2019-05-26T16:15:24.402Z,8.17
2019-05-26T16:17:53.899Z,8.10
2019-05-26T16:20:23.547Z,7.20
2019-05-26T16:22:53.186Z,8.73
2019-05-26T16:25:22.594Z,8.47
2019-05-26T16:27:52.097Z,8.43
2019-05-26T16:30:21.585Z,8.03
2019-05-26T16:32:51.080Z,6.90
2019-05-26T16:35:20.533Z,7.17
2019-05-26T16:37:50.012Z,8.17
2019-05-26T16:40:19.516Z,9.10
2019-05-26T16:42:49.014Z,10.10
2019-05-26T16:45:19.145Z,10.20
2019-05-26T16:47:48.753Z,10.50
2019-05-26T16:50:18.342Z,8.60
2019-05-26T16:52:47.775Z,8.40
2019-05-26T16:55:17.168Z,7.70
2019-05-26T16:57:46.662Z,8.73
2019-05-26T17:00:16.061Z,9.37
2019-05-26T17:02:45.518Z,8.43
2019-05-26T17:05:14.973Z,7.87
2019-05-26T17:07:44.345Z,8.17
2019-05-26T17:10:13.817Z,8.13
2019-05-26T17:12:43.170Z,8.73
2019-05-26T17:15:12.678Z,7.70
2019-05-26T17:17:42.143Z,7.03
2019-05-26T17:20:13.788Z,7.47
2019-05-26T17:22:43.299Z,6.93
2019-05-26T17:25:12.865Z,6.37
2019-05-26T17:27:42.560Z,7.20
2019-05-26T17:30:12.467Z,7.90
2019-05-26T17:32:41.929Z,7.33
2019-05-26T17:35:11.395Z,6.70
2019-05-26T17:37:41.008Z,7.50
2019-05-26T17:40:10.904Z,7.93
2019-05-26T17:42:40.404Z,7.43
2019-05-26T17:45:10.124Z,7.90
2019-05-26T17:47:39.648Z,8.10
2019-05-26T17:50:09.656Z,6.87
2019-05-26T17:52:39.257Z,8.03
2019-05-26T17:55:10.167Z,7.57
2019-05-26T17:57:39.707Z,7.30
2019-05-26T18:00:09.827Z,6.57
2019-05-26T18:02:39.555Z,5.97
2019-05-26T18:05:09.289Z,6.50
2019-05-26T18:07:38.839Z,6.40
2019-05-26T18:10:12.759Z,6.20
2019-05-26T18:12:42.338Z,5.43
2019-05-26T18:15:12.168Z,7.03
2019-05-26T18:17:47.412Z,5.80
2019-05-26T18:20:13.121Z,5.90
2019-05-26T18:22:42.916Z,6.60
2019-05-26T18:25:12.906Z,5.63
2019-05-26T18:27:44.688Z,5.83
2019-05-26T18:30:14.351Z,5.40
2019-05-26T18:32:43.810Z,5.67
2019-05-26T18:35:13.443Z,4.77
2019-05-26T18:37:42.822Z,5.37
2019-05-26T18:40:12.862Z,5.23
2019-05-26T18:42:42.289Z,5.13
2019-05-26T18:45:12.759Z,5.00
2019-05-26T18:47:42.260Z,4.50
2019-05-26T18:50:12.210Z,4.60
2019-05-26T18:52:41.808Z,5.30
2019-05-26T18:55:11.336Z,4.70
2019-05-26T18:57:40.825Z,4.73
2019-05-26T19:00:11.288Z,4.50
2019-05-26T19:02:41.047Z,5.60
2019-05-26T19:05:10.519Z,5.23
2019-05-26T19:07:39.959Z,4.20
2019-05-26T19:10:09.841Z,4.87
2019-05-26T19:12:39.398Z,4.60
2019-05-26T19:15:14.814Z,4.27
2019-05-26T19:17:44.450Z,4.30
2019-05-26T19:20:16.547Z,3.77
2019-05-26T19:22:45.756Z,4.10
2019-05-26T19:25:15.307Z,4.57
2019-05-26T19:27:44.827Z,3.50
2019-05-26T19:30:15.323Z,3.90
2019-05-26T19:32:47.719Z,3.70
2019-05-26T19:35:17.294Z,4.40
2019-05-26T19:37:46.765Z,3.50
2019-05-26T19:40:17.450Z,4.00
2019-05-26T19:42:47.363Z,3.80
2019-05-26T19:45:17.390Z,3.87
2019-05-26T19:47:46.906Z,3.10
2019-05-26T19:50:16.470Z,3.70
2019-05-26T19:52:49.552Z,4.00
2019-05-26T19:55:17.080Z,3.80
2019-05-26T19:57:46.488Z,4.07
2019-05-26T20:00:18.390Z,3.50
2019-05-26T20:02:47.984Z,4.00
2019-05-26T20:05:17.472Z,3.80
2019-05-26T20:07:48.617Z,4.13
2019-05-26T20:10:19.427Z,3.90
2019-05-26T20:12:50.300Z,3.87
2019-05-26T20:15:20.185Z,3.40
2019-05-26T20:17:50.356Z,4.97
2019-05-26T20:20:20.838Z,3.80
2019-05-26T20:22:51.497Z,3.67
2019-05-26T20:25:21.483Z,3.90
2019-05-26T20:27:51.333Z,3.67
2019-05-26T20:30:23.345Z,3.57
2019-05-26T20:32:53.935Z,3.60
2019-05-26T20:35:25.624Z,3.43
2019-05-26T20:37:56.681Z,3.30
2019-05-26T20:40:26.598Z,3.73
2019-05-26T20:42:58.893Z,3.47
2019-05-26T20:45:30.138Z,2.70
2019-05-26T20:48:01.277Z,3.37
2019-05-26T20:50:33.479Z,3.80
2019-05-26T20:53:04.096Z,3.53
2019-05-26T20:55:40.412Z,3.90
2019-05-26T20:58:10.592Z,3.40
2019-05-26T21:00:41.833Z,3.17
2019-05-26T21:03:12.059Z,3.33
2019-05-26T21:05:41.789Z,3.20
2019-05-26T21:08:12.482Z,3.50
2019-05-26T21:10:44.822Z,3.40
2019-05-26T21:13:14.523Z,3.13
2019-05-26T21:15:44.288Z,3.20
2019-05-26T21:18:14.133Z,3.07
2019-05-26T21:20:46.500Z,3.37
2019-05-26T21:23:15.951Z,3.03
2019-05-26T21:25:45.379Z,2.80
2019-05-26T21:28:14.870Z,3.33
2019-05-26T21:30:44.355Z,3.07
2019-05-26T21:33:13.777Z,2.87
2019-05-26T21:35:43.144Z,3.17
2019-05-26T21:38:12.665Z,3.07
2019-05-26T21:40:42.207Z,2.50
2019-05-26T21:43:11.662Z,2.90
2019-05-26T21:45:41.084Z,3.03
2019-05-26T21:48:10.482Z,2.87
2019-05-26T21:50:39.984Z,3.63
2019-05-26T21:53:09.511Z,2.63
2019-05-26T21:55:39.138Z,2.67
2019-05-26T21:58:08.573Z,3.13
2019-05-26T22:00:44.175Z,3.40
2019-05-26T22:03:13.776Z,2.80
2019-05-26T22:05:43.210Z,3.53
2019-05-26T22:08:12.600Z,3.33
2019-05-26T22:10:42.094Z,3.10
2019-05-26T22:13:11.552Z,3.00
2019-05-26T22:15:41.073Z,3.00
2019-05-26T22:18:10.617Z,2.63
2019-05-26T22:20:40.086Z,2.70
2019-05-26T22:23:09.573Z,3.40
2019-05-26T22:25:39.088Z,3.50
2019-05-26T22:28:08.566Z,3.47
2019-05-26T22:30:38.405Z,3.63
2019-05-26T22:33:07.864Z,3.47
2019-05-26T22:35:37.352Z,3.57
2019-05-26T22:38:07.251Z,3.00
2019-05-26T22:40:36.949Z,3.23
2019-05-26T22:43:06.414Z,2.90
2019-05-26T22:45:35.883Z,2.93
2019-05-26T22:48:05.522Z,2.90
2019-05-26T22:50:36.247Z,3.40
2019-05-26T22:53:05.824Z,3.47
2019-05-26T22:55:35.282Z,3.40
2019-05-26T22:58:04.789Z,4.07
2019-05-26T23:00:34.169Z,3.70
2019-05-26T23:03:03.605Z,3.10
2019-05-26T23:05:33.195Z,2.80
2019-05-26T23:08:02.809Z,3.70
2019-05-26T23:10:32.410Z,3.40
2019-05-26T23:13:02.014Z,4.47
2019-05-26T23:15:31.789Z,3.83
2019-05-26T23:18:01.325Z,4.00
2019-05-26T23:20:31.007Z,4.17
2019-05-26T23:23:00.500Z,3.57
2019-05-26T23:25:30.158Z,4.23
2019-05-26T23:27:59.625Z,4.27
2019-05-26T23:30:29.313Z,4.37
2019-05-26T23:32:58.943Z,4.57
2019-05-26T23:35:28.742Z,3.87
2019-05-26T23:37:58.381Z,5.13
2019-05-26T23:40:28.039Z,4.43
2019-05-26T23:42:57.703Z,4.60
2019-05-26T23:45:27.321Z,4.27
2019-05-26T23:47:56.891Z,4.23
2019-05-26T23:50:26.413Z,4.50
2019-05-26T23:52:55.808Z,4.00
2019-05-26T23:55:25.262Z,4.80
2019-05-26T23:57:54.667Z,3.97
